createdAt,value
2023-01-19T00:00:29.303Z,992.6
2023-01-19T00:03:28.803Z,992.6
2023-01-19T00:06:28.694Z,992.7
2023-01-19T00:09:28.603Z,992.7
2023-01-19T00:12:28.943Z,992.7
2023-01-19T00:15:28.386Z,992.7
2023-01-19T00:18:28.460Z,992.7
2023-01-19T00:21:28.781Z,992.7
2023-01-19T00:24:28.298Z,992.7
2023-01-19T00:27:28.791Z,992.7
2023-01-19T00:30:29.002Z,992.7
2023-01-19T00:33:28.653Z,992.7
2023-01-19T00:36:29.001Z,992.7
2023-01-19T00:39:29.228Z,992.7
2023-01-19T00:42:28.279Z,992.7
2023-01-19T00:45:28.704Z,992.7
2023-01-19T00:48:28.751Z,992.7
2023-01-19T00:51:28.840Z,992.8
2023-01-19T00:54:29.181Z,992.8
2023-01-19T00:57:29.260Z,992.8
2023-01-19T01:00:28.992Z,992.8
2023-01-19T01:03:28.498Z,992.8
2023-01-19T01:06:28.914Z,992.7
2023-01-19T01:09:29.071Z,992.7
2023-01-19T01:12:28.682Z,992.7
2023-01-19T01:15:28.752Z,992.7
2023-01-19T01:18:28.835Z,992.7
2023-01-19T01:21:28.991Z,992.7
2023-01-19T01:24:29.110Z,992.8
2023-01-19T01:27:29.017Z,992.8
2023-01-19T01:30:28.458Z,992.8
2023-01-19T01:33:40.847Z,992.8
2023-01-19T01:36:29.173Z,992.7
2023-01-19T01:39:29.016Z,992.7
2023-01-19T01:42:28.397Z,992.7
2023-01-19T01:45:29.789Z,992.8
2023-01-19T01:48:28.777Z,992.8
2023-01-19T01:51:29.240Z,992.8
2023-01-19T01:54:28.717Z,992.7
2023-01-19T01:57:28.863Z,992.7
2023-01-19T02:00:28.383Z,992.7
2023-01-19T02:03:29.145Z,992.7
2023-01-19T02:06:31.659Z,992.7
2023-01-19T02:09:29.102Z,992.7
2023-01-19T02:12:28.309Z,992.7
2023-01-19T02:15:29.080Z,992.7
2023-01-19T02:18:28.947Z,992.7
2023-01-19T02:21:28.780Z,992.7
2023-01-19T02:24:28.379Z,992.7
2023-01-19T02:27:28.376Z,992.7
2023-01-19T02:30:29.376Z,992.7
2023-01-19T02:33:28.997Z,992.7
2023-01-19T02:36:29.148Z,992.7
2023-01-19T02:39:28.537Z,992.7
2023-01-19T02:45:28.957Z,992.7
2023-01-19T02:48:29.265Z,992.7
2023-01-19T02:51:28.940Z,992.7
2023-01-19T02:54:28.523Z,992.7
2023-01-19T02:57:29.033Z,992.7
2023-01-19T03:00:28.792Z,992.7
2023-01-19T03:03:28.307Z,992.7
2023-01-19T03:06:28.861Z,992.7
2023-01-19T03:09:28.543Z,992.7
2023-01-19T03:12:29.094Z,992.7
2023-01-19T03:15:28.562Z,992.7
2023-01-19T03:18:28.455Z,992.7
2023-01-19T03:21:54.305Z,992.7
2023-01-19T03:24:28.856Z,992.7
2023-01-19T03:27:28.522Z,992.7
2023-01-19T03:30:29.507Z,992.7
2023-01-19T03:33:28.700Z,992.7
2023-01-19T03:36:29.575Z,992.6
2023-01-19T03:39:29.023Z,992.6
2023-01-19T03:42:28.700Z,992.6
2023-01-19T03:45:28.620Z,992.6
2023-01-19T03:48:29.255Z,992.6
2023-01-19T03:51:28.688Z,992.6
2023-01-19T03:54:28.792Z,992.6
2023-01-19T03:57:28.381Z,992.6
2023-01-19T04:00:29.091Z,992.6
2023-01-19T04:03:28.274Z,992.6
2023-01-19T04:06:28.914Z,992.6
2023-01-19T04:09:29.008Z,992.6
2023-01-19T04:12:29.134Z,992.6
2023-01-19T04:15:28.588Z,992.6
2023-01-19T04:18:28.827Z,992.6
2023-01-19T04:21:28.468Z,992.6
2023-01-19T04:24:28.548Z,992.6
2023-01-19T04:27:29.187Z,992.6
2023-01-19T04:30:28.753Z,992.6
2023-01-19T04:33:28.601Z,992.7
2023-01-19T04:36:29.129Z,992.7
2023-01-19T04:39:28.455Z,992.7
2023-01-19T04:42:28.519Z,992.8
2023-01-19T04:45:29.240Z,992.8
2023-01-19T04:48:28.593Z,992.8
2023-01-19T04:51:28.633Z,992.8
2023-01-19T04:54:29.330Z,992.8
2023-01-19T04:57:28.949Z,992.8
2023-01-19T05:00:28.786Z,992.8
2023-01-19T05:03:29.352Z,992.8
2023-01-19T05:06:28.294Z,992.9
2023-01-19T05:09:28.935Z,992.9
2023-01-19T05:12:28.864Z,992.9
2023-01-19T05:15:28.477Z,992.9
2023-01-19T05:18:28.834Z,992.9
2023-01-19T05:21:28.842Z,992.9
2023-01-19T05:24:28.193Z,992.9
2023-01-19T05:27:28.996Z,992.9
2023-01-19T05:30:28.751Z,992.9
2023-01-19T05:33:29.252Z,992.9
2023-01-19T05:36:28.589Z,992.9
2023-01-19T05:39:29.085Z,992.9
2023-01-19T05:42:30.329Z,992.9
2023-01-19T05:45:28.364Z,992.9
2023-01-19T05:48:28.540Z,992.9
2023-01-19T05:51:28.411Z,992.9
2023-01-19T05:54:28.780Z,993
2023-01-19T05:57:28.763Z,993
2023-01-19T06:00:28.596Z,993
2023-01-19T06:03:29.220Z,992.9
2023-01-19T06:06:28.930Z,992.9
2023-01-19T06:09:29.144Z,992.9
2023-01-19T06:12:28.608Z,992.9
2023-01-19T06:15:28.541Z,993
2023-01-19T06:18:29.345Z,993
2023-01-19T06:21:28.574Z,993
2023-01-19T06:24:29.025Z,993.1
2023-01-19T06:27:29.169Z,993.2
2023-01-19T06:30:29.008Z,993.2
2023-01-19T06:33:29.187Z,993.3
2023-01-19T06:36:28.945Z,993.3
2023-01-19T06:39:29.515Z,993.4
2023-01-19T06:42:28.489Z,993.4
2023-01-19T06:45:29.336Z,993.3
2023-01-19T06:48:28.757Z,993.3
2023-01-19T06:51:28.598Z,993.4
2023-01-19T06:54:29.086Z,993.4
2023-01-19T06:58:16.840Z,993.5
2023-01-19T07:00:28.388Z,993.5
2023-01-19T07:03:29.178Z,993.6
2023-01-19T07:06:33.272Z,993.6
2023-01-19T07:09:28.529Z,993.6
2023-01-19T07:12:29.267Z,993.7
2023-01-19T07:15:29.188Z,993.7
2023-01-19T07:21:34.319Z,993.8
2023-01-19T07:25:06.752Z,993.8
2023-01-19T07:27:28.991Z,993.8
2023-01-19T07:30:29.353Z,993.9
2023-01-19T07:33:29.017Z,994
2023-01-19T07:36:28.995Z,994
2023-01-19T07:39:29.077Z,994.1
2023-01-19T07:42:29.195Z,994.1
2023-01-19T07:45:28.714Z,994.1
2023-01-19T07:48:29.322Z,994.1
2023-01-19T07:51:28.527Z,994.1
2023-01-19T07:54:28.583Z,994.2
2023-01-19T07:57:28.322Z,994.2
2023-01-19T08:00:28.701Z,994.2
2023-01-19T08:03:28.550Z,994.2
2023-01-19T08:06:28.894Z,994.3
2023-01-19T08:09:29.202Z,994.3
2023-01-19T08:12:28.495Z,994.4
2023-01-19T08:15:29.067Z,994.4
2023-01-19T08:18:28.345Z,994.4
2023-01-19T08:21:28.407Z,994.5
2023-01-19T08:24:28.672Z,994.5
2023-01-19T08:27:28.556Z,994.6
2023-01-19T08:30:29.035Z,994.6
2023-01-19T08:33:29.351Z,994.7
2023-01-19T08:36:28.807Z,994.7
2023-01-19T08:39:28.959Z,994.8
2023-01-19T08:42:29.130Z,994.8
2023-01-19T08:45:28.869Z,994.8
2023-01-19T08:48:29.079Z,994.8
2023-01-19T08:51:35.200Z,994.8
2023-01-19T08:54:28.398Z,994.9
2023-01-19T08:57:29.344Z,994.9
2023-01-19T09:00:29.599Z,994.9
2023-01-19T09:03:28.857Z,995
2023-01-19T09:06:28.697Z,995
2023-01-19T09:09:29.141Z,995.1
2023-01-19T09:12:28.447Z,995.1
2023-01-19T09:15:28.455Z,995.2
2023-01-19T09:18:28.838Z,995.2
2023-01-19T09:21:28.833Z,995.2
2023-01-19T09:24:28.413Z,995.3
2023-01-19T09:27:28.409Z,995.3
2023-01-19T09:30:28.620Z,995.3
2023-01-19T09:33:28.713Z,995.4
2023-01-19T09:36:28.497Z,995.4
2023-01-19T09:39:28.833Z,995.5
2023-01-19T09:42:29.104Z,995.5
2023-01-19T09:45:28.721Z,995.6
2023-01-19T09:48:28.807Z,995.6
2023-01-19T09:51:28.548Z,995.6
2023-01-19T09:54:28.646Z,995.6
2023-01-19T09:57:28.667Z,995.6
2023-01-19T10:00:29.136Z,995.7
2023-01-19T10:03:29.511Z,995.7
2023-01-19T10:06:28.551Z,995.7
2023-01-19T10:09:28.736Z,995.7
2023-01-19T10:12:33.955Z,995.7
2023-01-19T10:15:29.248Z,995.8
2023-01-19T10:18:29.189Z,995.8
2023-01-19T10:21:29.443Z,995.8
2023-01-19T10:24:28.274Z,995.8
2023-01-19T10:27:29.216Z,995.9
2023-01-19T10:30:29.274Z,995.9
2023-01-19T10:33:29.122Z,996
2023-01-19T10:36:28.262Z,996
2023-01-19T10:39:28.684Z,996.1
2023-01-19T10:42:28.102Z,996.1
2023-01-19T10:45:29.482Z,996.1
2023-01-19T10:48:28.947Z,996.1
2023-01-19T10:51:28.497Z,996.1
2023-01-19T10:54:28.662Z,996
2023-01-19T10:57:28.823Z,996.1
2023-01-19T11:00:28.991Z,996.1
2023-01-19T11:03:28.686Z,996.1
2023-01-19T11:06:28.943Z,996.1
2023-01-19T11:09:29.036Z,996
2023-01-19T11:12:28.530Z,996.1
2023-01-19T11:15:28.655Z,996.1
2023-01-19T11:18:28.808Z,996.1
2023-01-19T11:21:28.273Z,996.1
2023-01-19T11:24:28.412Z,996.2
2023-01-19T11:27:28.838Z,996.2
2023-01-19T11:30:28.657Z,996.2
2023-01-19T11:33:28.980Z,996.3
2023-01-19T11:36:28.982Z,996.3
2023-01-19T11:39:28.894Z,996.3
2023-01-19T11:42:28.520Z,996.3
2023-01-19T11:45:28.816Z,996.3
2023-01-19T11:48:29.064Z,996.3
2023-01-19T11:51:28.604Z,996.3
2023-01-19T11:54:28.424Z,996.3
2023-01-19T11:57:28.505Z,996.3
2023-01-19T12:00:32.213Z,996.3
2023-01-19T12:03:29.319Z,996.3
2023-01-19T12:06:28.757Z,996.3
2023-01-19T12:09:29.181Z,996.4
2023-01-19T12:12:29.037Z,996.4
2023-01-19T12:15:29.032Z,996.4
2023-01-19T12:18:29.130Z,996.4
2023-01-19T12:21:28.946Z,996.4
2023-01-19T12:24:29.246Z,996.4
2023-01-19T12:27:28.727Z,996.4
2023-01-19T12:30:29.382Z,996.4
2023-01-19T12:33:28.951Z,996.5
2023-01-19T12:36:28.984Z,996.5
2023-01-19T12:39:28.748Z,996.5
2023-01-19T12:42:28.996Z,996.5
2023-01-19T12:45:29.451Z,996.5
2023-01-19T12:48:28.391Z,996.6
2023-01-19T12:51:28.255Z,996.6
2023-01-19T12:54:28.473Z,996.7
2023-01-19T12:57:28.655Z,996.7
2023-01-19T13:00:30.639Z,996.7
2023-01-19T13:03:28.728Z,996.7
2023-01-19T13:06:28.633Z,996.8
2023-01-19T13:09:28.476Z,996.8
2023-01-19T13:12:29.748Z,996.8
2023-01-19T13:15:29.121Z,996.8
2023-01-19T13:18:30.059Z,996.8
2023-01-19T13:21:28.353Z,996.8
2023-01-19T13:24:28.396Z,996.8
2023-01-19T13:27:28.946Z,996.8
2023-01-19T13:30:28.296Z,996.8
2023-01-19T13:33:28.810Z,996.8
2023-01-19T13:36:28.947Z,996.8
2023-01-19T13:39:28.754Z,996.8
2023-01-19T13:42:28.617Z,996.8
2023-01-19T13:45:28.791Z,996.8
2023-01-19T13:48:28.363Z,996.9
2023-01-19T13:51:28.440Z,997
2023-01-19T13:54:28.323Z,997
2023-01-19T13:57:29.209Z,997.1
2023-01-19T14:00:28.342Z,997.1
2023-01-19T14:03:29.555Z,997.1
2023-01-19T14:06:28.973Z,997.1
2023-01-19T14:09:29.236Z,997.2
2023-01-19T14:12:28.482Z,997.2
2023-01-19T14:15:29.228Z,997.3
2023-01-19T14:18:29.118Z,997.3
2023-01-19T14:21:28.638Z,997.4
2023-01-19T14:24:29.051Z,997.4
2023-01-19T14:27:28.256Z,997.4
2023-01-19T14:30:28.744Z,997.5
2023-01-19T14:33:28.912Z,997.5
2023-01-19T14:36:28.498Z,997.6
2023-01-19T14:39:28.579Z,997.6
2023-01-19T14:42:28.678Z,997.6
2023-01-19T14:45:28.640Z,997.7
2023-01-19T14:48:28.975Z,997.7
2023-01-19T14:51:28.970Z,997.8
2023-01-19T14:54:29.054Z,997.8
2023-01-19T14:57:28.667Z,997.9
2023-01-19T15:00:30.338Z,997.9
2023-01-19T15:03:45.789Z,997.9
2023-01-19T15:06:28.658Z,997.9
2023-01-19T15:09:29.007Z,997.9
2023-01-19T15:12:29.152Z,998
2023-01-19T15:15:28.505Z,998
2023-01-19T15:18:28.560Z,998
2023-01-19T15:21:28.940Z,998.1
2023-01-19T15:24:28.467Z,998.1
2023-01-19T15:27:28.817Z,998.1
2023-01-19T15:30:29.158Z,998.2
2023-01-19T15:33:28.791Z,998.2
2023-01-19T15:36:28.807Z,998.2
2023-01-19T15:39:28.956Z,998.3
2023-01-19T15:42:28.238Z,998.3
2023-01-19T15:45:28.919Z,998.3
2023-01-19T15:48:29.187Z,998.4
2023-01-19T15:51:29.198Z,998.4
2023-01-19T15:54:29.190Z,998.5
2023-01-19T15:57:29.293Z,998.6
2023-01-19T16:00:28.522Z,998.6
2023-01-19T16:03:29.116Z,998.6
2023-01-19T16:06:28.340Z,998.7
2023-01-19T16:09:28.570Z,998.8
2023-01-19T16:12:28.905Z,998.9
2023-01-19T16:15:28.726Z,998.9
2023-01-19T16:18:28.497Z,998.9
2023-01-19T16:21:28.731Z,998.9
2023-01-19T16:24:28.330Z,998.9
2023-01-19T16:27:28.440Z,998.9
2023-01-19T16:30:28.581Z,998.9
2023-01-19T16:33:28.205Z,998.9
2023-01-19T16:36:29.151Z,999
2023-01-19T16:39:29.444Z,999
2023-01-19T16:42:29.593Z,999
2023-01-19T16:45:28.897Z,999.1
2023-01-19T16:48:28.820Z,999.1
2023-01-19T16:51:28.923Z,999.1
2023-01-19T16:54:31.625Z,999.2
2023-01-19T16:57:28.380Z,999.2
2023-01-19T17:00:28.731Z,999.3
2023-01-19T17:03:28.715Z,999.3
2023-01-19T17:06:29.438Z,999.3
2023-01-19T17:09:28.806Z,999.3
2023-01-19T17:12:32.441Z,999.4
2023-01-19T17:15:29.395Z,999.4
2023-01-19T17:18:31.896Z,999.4
2023-01-19T17:21:28.492Z,999.5
2023-01-19T17:24:28.889Z,999.5
2023-01-19T17:27:28.793Z,999.5
2023-01-19T17:30:29.289Z,999.6
2023-01-19T17:33:29.112Z,999.6
2023-01-19T17:36:28.788Z,999.6
2023-01-19T17:39:28.705Z,999.7
2023-01-19T17:42:28.692Z,999.7
2023-01-19T17:45:28.659Z,999.8
2023-01-19T17:48:28.592Z,999.8
2023-01-19T17:51:28.267Z,999.9
2023-01-19T17:54:28.585Z,999.9
2023-01-19T17:57:28.591Z,999.9
2023-01-19T18:00:29.057Z,999.9
2023-01-19T18:03:29.060Z,999.9
2023-01-19T18:06:28.351Z,999.9
2023-01-19T18:09:28.468Z,1000
2023-01-19T18:12:28.818Z,1000
2023-01-19T18:15:28.942Z,1000
2023-01-19T18:18:29.105Z,1000
2023-01-19T18:21:29.064Z,1000.1
2023-01-19T18:24:29.024Z,1000.1
2023-01-19T18:27:29.240Z,1000.1
2023-01-19T18:30:29.228Z,1000.1
2023-01-19T18:33:27.933Z,1000.1
2023-01-19T18:36:28.983Z,1000.1
2023-01-19T18:39:28.989Z,1000.2
2023-01-19T18:42:28.822Z,1000.2
2023-01-19T18:45:28.904Z,1000.2
2023-01-19T18:48:28.223Z,1000.2
2023-01-19T18:51:28.385Z,1000.2
2023-01-19T18:54:28.223Z,1000.2
2023-01-19T18:57:28.745Z,1000.2
2023-01-19T19:00:30.489Z,1000.2
2023-01-19T19:03:28.442Z,1000.2
2023-01-19T19:06:28.461Z,1000.2
2023-01-19T19:09:29.031Z,1000.3
2023-01-19T19:12:28.317Z,1000.3
2023-01-19T19:15:28.621Z,1000.3
2023-01-19T19:21:28.161Z,1000.3
2023-01-19T19:24:28.462Z,1000.3
2023-01-19T19:27:28.141Z,1000.4
2023-01-19T19:30:29.206Z,1000.4
2023-01-19T19:33:28.878Z,1000.4
2023-01-19T19:36:28.810Z,1000.4
2023-01-19T19:39:29.122Z,1000.5
2023-01-19T19:42:28.787Z,1000.5
2023-01-19T19:45:28.711Z,1000.6
2023-01-19T19:48:29.103Z,1000.6
2023-01-19T19:51:28.838Z,1000.6
2023-01-19T19:54:28.982Z,1000.6
2023-01-19T19:57:29.159Z,1000.6
2023-01-19T20:00:28.490Z,1000.6
2023-01-19T20:03:28.779Z,1000.7
2023-01-19T20:06:28.575Z,1000.7
2023-01-19T20:09:28.665Z,1000.7
2023-01-19T20:12:28.829Z,1000.8
2023-01-19T20:15:28.937Z,1000.8
2023-01-19T20:18:28.630Z,1000.8
2023-01-19T20:21:31.515Z,1000.8
2023-01-19T20:24:28.899Z,1000.9
2023-01-19T20:27:28.456Z,1000.9
2023-01-19T20:30:28.544Z,1000.9
2023-01-19T20:33:28.708Z,1000.9
2023-01-19T20:36:29.049Z,1001
2023-01-19T20:39:28.398Z,1001
2023-01-19T20:42:28.626Z,1001.1
2023-01-19T20:45:29.186Z,1001.1
2023-01-19T20:48:29.114Z,1001.2
2023-01-19T20:51:29.044Z,1001.2
2023-01-19T20:54:29.221Z,1001.3
2023-01-19T20:57:28.603Z,1001.3
2023-01-19T21:00:29.000Z,1001.3
2023-01-19T21:03:29.151Z,1001.4
2023-01-19T21:06:28.751Z,1001.4
2023-01-19T21:09:28.741Z,1001.4
2023-01-19T21:12:28.745Z,1001.4
2023-01-19T21:15:28.539Z,1001.4
2023-01-19T21:18:29.074Z,1001.5
2023-01-19T21:21:32.254Z,1001.5
2023-01-19T21:24:39.956Z,1001.5
2023-01-19T21:27:28.818Z,1001.6
2023-01-19T21:30:28.511Z,1001.6
2023-01-19T21:33:29.356Z,1001.7
2023-01-19T21:36:29.139Z,1001.7
2023-01-19T21:39:28.820Z,1001.7
2023-01-19T21:42:29.137Z,1001.7
2023-01-19T21:45:28.727Z,1001.7
2023-01-19T21:48:28.247Z,1001.8
2023-01-19T21:51:28.222Z,1001.8
2023-01-19T21:54:28.730Z,1001.9
2023-01-19T21:57:29.045Z,1001.9
2023-01-19T22:00:36.404Z,1002
2023-01-19T22:03:29.055Z,1002
2023-01-19T22:06:28.454Z,1002
2023-01-19T22:09:29.103Z,1002.1
2023-01-19T22:12:29.024Z,1002.1
2023-01-19T22:15:28.550Z,1002.1
2023-01-19T22:18:28.792Z,1002.1
2023-01-19T22:21:28.705Z,1002.2
2023-01-19T22:24:28.386Z,1002.2
2023-01-19T22:27:28.667Z,1002.2
2023-01-19T22:30:28.717Z,1002.2
2023-01-19T22:33:29.189Z,1002.3
2023-01-19T22:36:29.100Z,1002.3
2023-01-19T22:39:29.036Z,1002.4
2023-01-19T22:42:28.693Z,1002.4
2023-01-19T22:45:28.717Z,1002.4
2023-01-19T22:48:28.466Z,1002.4
2023-01-19T22:51:29.231Z,1002.4
2023-01-19T22:54:29.044Z,1002.4
2023-01-19T22:57:28.650Z,1002.4
2023-01-19T23:00:29.027Z,1002.4
2023-01-19T23:03:28.662Z,1002.5
2023-01-19T23:06:28.370Z,1002.5
2023-01-19T23:09:28.329Z,1002.6
2023-01-19T23:12:28.920Z,1002.7
2023-01-19T23:15:28.763Z,1002.7
2023-01-19T23:18:28.728Z,1002.8
2023-01-19T23:21:28.415Z,1002.8
2023-01-19T23:24:28.563Z,1002.9
2023-01-19T23:27:28.337Z,1002.9
2023-01-19T23:30:29.462Z,1002.9
2023-01-19T23:33:28.159Z,1003
2023-01-19T23:36:28.571Z,1003
2023-01-19T23:39:28.753Z,1003
2023-01-19T23:42:28.252Z,1003
2023-01-19T23:45:28.330Z,1003.1
2023-01-19T23:48:28.376Z,1003.1
2023-01-19T23:51:28.882Z,1003.1
2023-01-19T23:54:28.924Z,1003.2
2023-01-19T23:57:28.738Z,1003.2
